createdAt,value
2019-04-10T00:02:09.927Z,56.70
2019-04-10T00:07:16.512Z,56.70
2019-04-10T00:12:19.158Z,56.60
2019-04-10T00:17:22.903Z,57.10
2019-04-10T00:22:26.378Z,57.20
2019-04-10T00:27:30.459Z,57.40
2019-04-10T00:32:34.182Z,57.80
2019-04-10T00:37:37.556Z,57.90
2019-04-10T00:42:41.361Z,58.10
2019-04-10T00:47:45.542Z,58.20
2019-04-10T00:52:48.956Z,58.10
2019-04-10T00:57:52.263Z,58.20
2019-04-10T01:02:56.751Z,58.30
2019-04-10T01:08:00.218Z,58.30
2019-04-10T01:13:03.521Z,58.60
2019-04-10T01:18:06.891Z,58.80
2019-04-10T01:23:10.259Z,58.70
2019-04-10T01:28:14.215Z,59.00
2019-04-10T01:33:18.619Z,59.10
2019-04-10T01:38:22.358Z,59.20
2019-04-10T01:43:26.596Z,59.10
2019-04-10T01:48:30.196Z,59.30
2019-04-10T01:53:35.623Z,59.30
2019-04-10T01:58:41.292Z,59.60
2019-04-10T02:03:44.862Z,60.00
2019-04-10T02:08:48.167Z,60.00
2019-04-10T02:13:51.816Z,60.00
2019-04-10T02:18:55.143Z,60.50
2019-04-10T02:23:58.701Z,60.70
2019-04-10T02:29:02.018Z,60.80
2019-04-10T02:34:07.568Z,61.90
2019-04-10T02:39:21.839Z,61.60
2019-04-10T02:44:16.439Z,61.90
2019-04-10T02:49:20.434Z,62.50
2019-04-10T02:54:25.088Z,63.10
2019-04-10T02:59:29.154Z,63.50
2019-04-10T03:04:33.075Z,63.70
2019-04-10T03:09:52.890Z,63.90
2019-04-10T03:14:45.177Z,64.40
2019-04-10T03:19:49.749Z,64.50
2019-04-10T03:24:52.769Z,64.80
2019-04-10T03:29:56.098Z,65.80
2019-04-10T03:35:04.753Z,66.10
2019-04-10T03:40:08.124Z,65.80
2019-04-10T03:45:13.592Z,66.30
2019-04-10T03:50:18.710Z,66.70
2019-04-10T03:55:22.938Z,66.50
2019-04-10T04:00:26.386Z,66.80
2019-04-10T04:05:30.776Z,67.20
2019-04-10T04:10:35.052Z,67.20
2019-04-10T04:15:39.098Z,67.50
2019-04-10T04:20:43.334Z,67.60
2019-04-10T04:25:46.816Z,67.70
2019-04-10T04:30:52.330Z,67.70
2019-04-10T04:35:55.196Z,67.50
2019-04-10T04:40:58.637Z,67.30
2019-04-10T04:46:03.215Z,67.20
2019-04-10T04:51:06.921Z,67.00
2019-04-10T04:56:10.216Z,66.50
2019-04-10T05:01:14.693Z,66.10
2019-04-10T05:06:18.299Z,66.00
2019-04-10T05:11:22.346Z,65.10
2019-04-10T05:16:25.748Z,65.00
2019-04-10T05:21:29.468Z,64.40
2019-04-10T05:26:32.814Z,64.00
2019-04-10T05:31:36.420Z,64.60
2019-04-10T05:36:40.017Z,63.80
2019-04-10T05:41:44.035Z,63.50
2019-04-10T05:46:47.619Z,63.00
2019-04-10T05:51:54.152Z,61.70
2019-04-10T05:56:58.998Z,61.40
2019-04-10T06:02:03.139Z,60.80
2019-04-10T06:07:06.703Z,60.20
2019-04-10T06:12:10.084Z,60.30
2019-04-10T06:17:14.168Z,59.50
2019-04-10T06:22:18.617Z,59.00
2019-04-10T06:27:22.217Z,58.20
2019-04-10T06:32:25.620Z,57.80
2019-04-10T06:37:28.982Z,57.00
2019-04-10T06:42:44.383Z,56.30
2019-04-10T06:47:38.254Z,55.50
2019-04-10T06:52:41.665Z,56.00
2019-04-10T06:57:50.861Z,54.20
2019-04-10T07:02:50.569Z,52.00
2019-04-10T07:08:01.813Z,50.90
2019-04-10T07:12:59.655Z,51.70
2019-04-10T07:18:03.191Z,51.90
2019-04-10T07:23:07.014Z,48.70
2019-04-10T07:28:11.953Z,46.00
2019-04-10T07:33:18.086Z,38.60
2019-04-10T07:38:22.731Z,41.70
2019-04-10T07:43:28.921Z,44.50
2019-04-10T07:48:31.537Z,46.10
2019-04-10T07:53:35.244Z,46.20
2019-04-10T07:58:39.843Z,46.40
2019-04-10T08:03:43.834Z,45.60
2019-04-10T08:08:47.306Z,45.80
2019-04-10T08:13:51.197Z,45.00
2019-04-10T08:18:56.833Z,44.40
2019-04-10T08:30:03.864Z,40.20
2019-04-10T08:35:07.379Z,34.00
2019-04-10T08:40:11.548Z,28.40
2019-04-10T08:45:15.035Z,27.50
2019-04-10T08:50:19.632Z,26.20
2019-04-10T08:55:24.036Z,24.40
2019-04-10T09:00:28.827Z,24.00
2019-04-10T09:05:33.291Z,25.00
2019-04-10T09:10:36.789Z,24.40
2019-04-10T09:15:42.265Z,24.50
2019-04-10T09:20:47.505Z,24.00
2019-04-10T09:25:51.253Z,23.80
2019-04-10T09:30:57.410Z,24.00
2019-04-10T09:36:00.810Z,23.10
2019-04-10T09:41:04.227Z,23.70
2019-04-10T09:46:08.446Z,23.60
2019-04-10T09:51:15.323Z,22.70
2019-04-10T09:56:19.909Z,23.10
2019-04-10T10:01:23.976Z,23.10
2019-04-10T10:06:33.056Z,23.60
2019-04-10T10:11:32.569Z,24.20
2019-04-10T10:16:36.075Z,22.30
2019-04-10T10:21:39.428Z,21.30
2019-04-10T10:26:44.556Z,17.40
2019-04-10T10:31:49.776Z,13.70
2019-04-10T10:36:53.285Z,11.40
2019-04-10T10:41:56.785Z,11.90
2019-04-10T10:47:00.272Z,14.90
2019-04-10T10:52:03.633Z,12.10
2019-04-10T10:57:07.110Z,10.00
2019-04-10T11:02:10.643Z,12.40
2019-04-10T11:07:14.494Z,10.40
2019-04-10T11:12:17.788Z,8.90
2019-04-10T11:17:22.185Z,7.50
2019-04-10T11:22:26.536Z,6.50
2019-04-10T11:27:30.055Z,6.40
2019-04-10T11:32:33.916Z,6.50
2019-04-10T11:42:42.959Z,6.50
2019-04-10T11:47:48.247Z,6.10
2019-04-10T11:52:54.121Z,6.10
2019-04-10T11:57:59.940Z,5.90
2019-04-10T12:03:04.874Z,5.60
2019-04-10T12:08:32.262Z,7.30
2019-04-10T12:13:16.445Z,10.20
2019-04-10T12:18:20.378Z,10.20
2019-04-10T12:23:25.135Z,8.10
2019-04-10T12:28:29.784Z,6.40
2019-04-10T12:33:33.734Z,6.10
2019-04-10T12:38:37.225Z,6.30
2019-04-10T12:43:41.386Z,5.70
2019-04-10T12:48:45.183Z,5.60
2019-04-10T12:53:48.756Z,5.70
2019-04-10T12:58:53.184Z,6.10
2019-04-10T13:03:57.844Z,5.80
2019-04-10T13:09:07.852Z,5.50
2019-04-10T13:14:06.928Z,5.70
2019-04-10T13:19:11.206Z,5.20
2019-04-10T13:24:15.356Z,5.60
2019-04-10T13:29:18.672Z,5.40
2019-04-10T13:34:22.884Z,6.20
2019-04-10T13:39:26.853Z,7.90
2019-04-10T13:44:30.813Z,11.60
2019-04-10T13:49:34.240Z,15.10
2019-04-10T13:54:38.807Z,16.90
2019-04-10T13:59:42.944Z,18.90
2019-04-10T14:04:47.265Z,21.40
2019-04-10T14:09:52.334Z,22.70
2019-04-10T14:14:57.368Z,23.30
2019-04-10T14:20:02.874Z,24.80
2019-04-10T14:25:07.937Z,25.90
2019-04-10T14:30:13.298Z,26.50
2019-04-10T14:35:16.853Z,27.30
2019-04-10T14:40:24.143Z,28.30
2019-04-10T14:45:27.738Z,29.20
2019-04-10T14:50:31.638Z,29.80
2019-04-10T14:55:35.528Z,30.70
2019-04-10T15:00:41.158Z,31.60
2019-04-10T15:05:50.548Z,33.00
2019-04-10T15:10:50.406Z,33.90
2019-04-10T15:15:54.767Z,34.90
2019-04-10T15:20:58.760Z,35.80
2019-04-10T15:26:03.848Z,36.70
2019-04-10T15:31:08.855Z,37.40
2019-04-10T15:36:12.660Z,37.90
2019-04-10T15:41:19.273Z,38.60
2019-04-10T15:46:23.188Z,39.20
2019-04-10T15:51:36.293Z,40.40
2019-04-10T15:56:40.181Z,41.10
2019-04-10T16:01:44.621Z,41.10
2019-04-10T16:06:47.998Z,41.70
2019-04-10T16:11:58.963Z,42.00
2019-04-10T16:17:22.317Z,42.40
2019-04-10T16:22:31.108Z,42.80
2019-04-10T16:27:34.614Z,43.10
2019-04-10T16:32:38.020Z,43.60
2019-04-10T16:37:41.878Z,43.90
2019-04-10T16:42:45.309Z,44.40
2019-04-10T16:47:48.605Z,44.80
2019-04-10T16:52:53.631Z,45.10
2019-04-10T16:57:56.972Z,45.60
2019-04-10T17:03:06.568Z,46.20
2019-04-10T17:08:12.347Z,46.30
2019-04-10T17:13:16.223Z,46.60
2019-04-10T17:18:19.781Z,46.90
2019-04-10T17:23:24.872Z,47.60
2019-04-10T17:28:28.456Z,48.00
2019-04-10T17:33:32.271Z,48.50
2019-04-10T17:38:36.509Z,48.60
2019-04-10T17:43:41.291Z,49.00
2019-04-10T17:48:44.767Z,48.90
2019-04-10T17:53:49.423Z,49.40
2019-04-10T17:58:54.244Z,49.60
2019-04-10T18:04:00.541Z,50.00
2019-04-10T18:09:03.317Z,50.20
2019-04-10T18:14:07.109Z,50.10
2019-04-10T18:19:12.508Z,50.00
2019-04-10T18:24:17.315Z,50.50
2019-04-10T18:29:21.146Z,51.30
2019-04-10T18:34:25.644Z,51.60
2019-04-10T18:39:29.042Z,52.00
2019-04-10T18:44:33.104Z,52.40
2019-04-10T18:49:36.511Z,52.50
2019-04-10T18:54:39.818Z,53.00
2019-04-10T18:59:51.128Z,53.20
2019-04-10T19:05:01.906Z,53.50
2019-04-10T19:10:06.812Z,53.80
2019-04-10T19:15:11.184Z,54.00
2019-04-10T19:20:15.656Z,54.20
2019-04-10T19:25:22.819Z,54.10
2019-04-10T19:30:37.381Z,54.20
2019-04-10T19:35:41.404Z,54.10
2019-04-10T19:40:45.840Z,54.30
2019-04-10T19:45:50.258Z,54.40
2019-04-10T19:50:53.922Z,54.30
2019-04-10T19:55:57.357Z,54.40
2019-04-10T20:01:12.741Z,54.40
2019-04-10T20:06:16.190Z,54.10
2019-04-10T20:11:31.304Z,54.10
2019-04-10T20:19:38.348Z,53.50
2019-04-10T20:24:45.586Z,53.90
2019-04-10T20:29:51.122Z,53.70
2019-04-10T20:35:00.600Z,53.70
2019-04-10T20:40:05.493Z,54.10
2019-04-10T20:45:09.345Z,54.30
2019-04-10T20:50:17.535Z,54.90
2019-04-10T20:55:25.832Z,54.90
2019-04-10T21:00:34.298Z,55.10
2019-04-10T21:05:37.937Z,55.10
2019-04-10T21:16:09.255Z,55.50
2019-04-10T21:21:16.902Z,55.60
2019-04-10T21:26:20.432Z,55.70
2019-04-10T21:31:34.601Z,55.90
2019-04-10T21:36:39.195Z,56.40
2019-04-10T21:41:42.644Z,56.40
2019-04-10T21:46:46.677Z,56.50
2019-04-10T21:51:50.110Z,56.80
2019-04-10T21:56:53.548Z,56.70
2019-04-10T22:01:57.688Z,56.80
2019-04-10T22:07:20.380Z,57.00
2019-04-10T22:12:31.133Z,57.30
2019-04-10T22:17:30.017Z,57.40
2019-04-10T22:22:33.630Z,57.40
2019-04-10T22:27:37.008Z,57.50
2019-04-10T22:32:40.918Z,57.80
2019-04-10T22:37:46.709Z,58.10
2019-04-10T22:42:51.332Z,58.20
2019-04-10T22:47:54.963Z,58.30
2019-04-10T22:52:59.225Z,58.50
2019-04-10T22:58:04.910Z,58.80
2019-04-10T23:03:08.320Z,58.90
2019-04-10T23:08:11.658Z,59.00
2019-04-10T23:13:16.005Z,59.30
2019-04-10T23:18:19.459Z,59.80
2019-04-10T23:23:25.150Z,60.00
2019-04-10T23:28:28.986Z,60.10
2019-04-10T23:33:34.470Z,60.10
2019-04-10T23:38:39.585Z,60.60
2019-04-10T23:43:42.515Z,60.80
2019-04-10T23:48:46.793Z,61.10
2019-04-10T23:53:50.941Z,61.20
2019-04-10T23:58:56.216Z,61.40
